sensor_id;sensor_type;location;lat;lon;timestamp;P1;durP1;ratioP1;P2;durP2;ratioP2
8232;SDS011;4157;48.074;9.952;2023-07-31T00:01:38;5.88;;;1.85;;
8232;SDS011;4157;48.074;9.952;2023-07-31T00:04:05;5.15;;;1.80;;
8232;SDS011;4157;48.074;9.952;2023-07-31T00:06:33;5.00;;;1.88;;
8232;SDS011;4157;48.074;9.952;2023-07-31T00:09:01;5.72;;;2.25;;
8232;SDS011;4157;48.074;9.952;2023-07-31T00:11:28;4.75;;;2.00;;
8232;SDS011;4157;48.074;9.952;2023-07-31T00:13:57;5.30;;;1.80;;
8232;SDS011;4157;48.074;9.952;2023-07-31T00:16:25;4.38;;;2.25;;
8232;SDS011;4157;48.074;9.952;2023-07-31T00:18:53;3.80;;;1.70;;
8232;SDS011;4157;48.074;9.952;2023-07-31T00:21:20;5.40;;;2.05;;
8232;SDS011;4157;48.074;9.952;2023-07-31T00:23:48;4.38;;;1.90;;
8232;SDS011;4157;48.074;9.952;2023-07-31T00:26:16;4.85;;;2.55;;
8232;SDS011;4157;48.074;9.952;2023-07-31T00:28:43;5.70;;;2.28;;
8232;SDS011;4157;48.074;9.952;2023-07-31T00:31:12;5.47;;;1.90;;
8232;SDS011;4157;48.074;9.952;2023-07-31T00:33:40;3.78;;;1.67;;
8232;SDS011;4157;48.074;9.952;2023-07-31T00:36:08;5.15;;;2.00;;
8232;SDS011;4157;48.074;9.952;2023-07-31T00:38:36;5.72;;;2.15;;
8232;SDS011;4157;48.074;9.952;2023-07-31T00:41:03;5.45;;;2.55;;
8232;SDS011;4157;48.074;9.952;2023-07-31T00:43:31;4.82;;;2.22;;
8232;SDS011;4157;48.074;9.952;2023-07-31T00:46:00;5.28;;;2.40;;
8232;SDS011;4157;48.074;9.952;2023-07-31T00:48:29;5.35;;;2.50;;
8232;SDS011;4157;48.074;9.952;2023-07-31T00:50:57;6.57;;;2.05;;
8232;SDS011;4157;48.074;9.952;2023-07-31T00:53:26;4.80;;;2.35;;
8232;SDS011;4157;48.074;9.952;2023-07-31T00:55:54;3.85;;;1.98;;
8232;SDS011;4157;48.074;9.952;2023-07-31T00:58:22;6.93;;;2.30;;
8232;SDS011;4157;48.074;9.952;2023-07-31T01:00:51;7.22;;;2.42;;
8232;SDS011;4157;48.074;9.952;2023-07-31T01:03:19;5.25;;;2.13;;
8232;SDS011;4157;48.074;9.952;2023-07-31T01:05:52;6.13;;;2.60;;
8232;SDS011;4157;48.074;9.952;2023-07-31T01:08:24;6.30;;;2.42;;
8232;SDS011;4157;48.074;9.952;2023-07-31T01:10:55;6.85;;;2.70;;
8232;SDS011;4157;48.074;9.952;2023-07-31T01:13:23;4.47;;;2.25;;
8232;SDS011;4157;48.074;9.952;2023-07-31T01:15:51;5.88;;;2.88;;
8232;SDS011;4157;48.074;9.952;2023-07-31T01:18:20;4.80;;;2.20;;
8232;SDS011;4157;48.074;9.952;2023-07-31T01:20:51;6.03;;;2.10;;
8232;SDS011;4157;48.074;9.952;2023-07-31T01:26:10;5.65;;;2.20;;
8232;SDS011;4157;48.074;9.952;2023-07-31T01:28:41;6.50;;;2.58;;
8232;SDS011;4157;48.074;9.952;2023-07-31T01:31:11;7.13;;;2.90;;
8232;SDS011;4157;48.074;9.952;2023-07-31T01:33:40;5.65;;;2.40;;
8232;SDS011;4157;48.074;9.952;2023-07-31T01:36:08;6.72;;;2.50;;
8232;SDS011;4157;48.074;9.952;2023-07-31T01:38:36;5.07;;;2.63;;
8232;SDS011;4157;48.074;9.952;2023-07-31T01:41:04;5.70;;;2.40;;
8232;SDS011;4157;48.074;9.952;2023-07-31T01:43:33;5.07;;;2.75;;
8232;SDS011;4157;48.074;9.952;2023-07-31T01:46:01;7.20;;;2.95;;
8232;SDS011;4157;48.074;9.952;2023-07-31T01:48:28;6.45;;;2.53;;
8232;SDS011;4157;48.074;9.952;2023-07-31T01:51:01;5.95;;;3.00;;
8232;SDS011;4157;48.074;9.952;2023-07-31T01:53:29;7.43;;;2.75;;
8232;SDS011;4157;48.074;9.952;2023-07-31T01:55:57;4.80;;;2.70;;
8232;SDS011;4157;48.074;9.952;2023-07-31T01:58:25;4.50;;;2.30;;
8232;SDS011;4157;48.074;9.952;2023-07-31T02:00:53;4.88;;;2.25;;
8232;SDS011;4157;48.074;9.952;2023-07-31T02:03:21;7.07;;;2.60;;
8232;SDS011;4157;48.074;9.952;2023-07-31T02:05:53;5.07;;;2.55;;
8232;SDS011;4157;48.074;9.952;2023-07-31T02:08:24;6.45;;;2.92;;
8232;SDS011;4157;48.074;9.952;2023-07-31T02:10:52;5.35;;;2.97;;
8232;SDS011;4157;48.074;9.952;2023-07-31T02:13:20;5.13;;;2.30;;
8232;SDS011;4157;48.074;9.952;2023-07-31T02:15:47;6.65;;;2.50;;
8232;SDS011;4157;48.074;9.952;2023-07-31T02:18:17;5.40;;;2.45;;
8232;SDS011;4157;48.074;9.952;2023-07-31T02:20:48;5.70;;;2.30;;
8232;SDS011;4157;48.074;9.952;2023-07-31T02:23:16;5.70;;;2.78;;
8232;SDS011;4157;48.074;9.952;2023-07-31T02:25:44;6.57;;;2.75;;
8232;SDS011;4157;48.074;9.952;2023-07-31T02:28:12;5.50;;;2.65;;
8232;SDS011;4157;48.074;9.952;2023-07-31T02:30:40;6.15;;;3.03;;
8232;SDS011;4157;48.074;9.952;2023-07-31T02:33:08;6.07;;;2.65;;
8232;SDS011;4157;48.074;9.952;2023-07-31T02:35:37;7.40;;;3.00;;
8232;SDS011;4157;48.074;9.952;2023-07-31T02:38:05;5.63;;;2.83;;
8232;SDS011;4157;48.074;9.952;2023-07-31T02:40:32;7.00;;;2.92;;
8232;SDS011;4157;48.074;9.952;2023-07-31T02:43:00;6.90;;;3.47;;
8232;SDS011;4157;48.074;9.952;2023-07-31T02:45:28;7.68;;;3.50;;
8232;SDS011;4157;48.074;9.952;2023-07-31T02:47:55;6.35;;;3.65;;
8232;SDS011;4157;48.074;9.952;2023-07-31T02:50:23;10.43;;;4.57;;
8232;SDS011;4157;48.074;9.952;2023-07-31T02:52:52;9.25;;;4.93;;
8232;SDS011;4157;48.074;9.952;2023-07-31T02:55:20;8.85;;;3.85;;
8232;SDS011;4157;48.074;9.952;2023-07-31T02:57:47;7.60;;;3.10;;
8232;SDS011;4157;48.074;9.952;2023-07-31T03:00:15;9.68;;;3.17;;
8232;SDS011;4157;48.074;9.952;2023-07-31T03:02:43;5.80;;;2.60;;
8232;SDS011;4157;48.074;9.952;2023-07-31T03:05:10;7.57;;;3.65;;
8232;SDS011;4157;48.074;9.952;2023-07-31T03:07:38;6.30;;;2.60;;
8232;SDS011;4157;48.074;9.952;2023-07-31T03:10:08;8.73;;;3.25;;
8232;SDS011;4157;48.074;9.952;2023-07-31T03:12:35;4.97;;;2.60;;
8232;SDS011;4157;48.074;9.952;2023-07-31T03:15:04;6.28;;;2.85;;
8232;SDS011;4157;48.074;9.952;2023-07-31T03:17:32;7.13;;;2.70;;
8232;SDS011;4157;48.074;9.952;2023-07-31T03:19:59;5.95;;;2.90;;
8232;SDS011;4157;48.074;9.952;2023-07-31T03:22:27;4.97;;;2.33;;
8232;SDS011;4157;48.074;9.952;2023-07-31T03:24:55;6.75;;;3.13;;
8232;SDS011;4157;48.074;9.952;2023-07-31T03:27:24;6.38;;;2.95;;
8232;SDS011;4157;48.074;9.952;2023-07-31T03:29:52;5.85;;;2.60;;
8232;SDS011;4157;48.074;9.952;2023-07-31T03:32:19;5.82;;;2.85;;
8232;SDS011;4157;48.074;9.952;2023-07-31T03:34:47;6.13;;;3.33;;
8232;SDS011;4157;48.074;9.952;2023-07-31T03:37:15;7.22;;;2.83;;
8232;SDS011;4157;48.074;9.952;2023-07-31T03:39:43;5.80;;;2.75;;
8232;SDS011;4157;48.074;9.952;2023-07-31T03:42:10;6.50;;;2.67;;
8232;SDS011;4157;48.074;9.952;2023-07-31T03:44:39;6.07;;;2.97;;
8232;SDS011;4157;48.074;9.952;2023-07-31T03:47:08;8.40;;;3.00;;
8232;SDS011;4157;48.074;9.952;2023-07-31T03:49:37;7.03;;;3.42;;
8232;SDS011;4157;48.074;9.952;2023-07-31T03:52:05;6.88;;;3.05;;
8232;SDS011;4157;48.074;9.952;2023-07-31T03:54:32;8.68;;;3.05;;
8232;SDS011;4157;48.074;9.952;2023-07-31T03:57:00;6.40;;;3.15;;
8232;SDS011;4157;48.074;9.952;2023-07-31T03:59:28;5.53;;;3.00;;
8232;SDS011;4157;48.074;9.952;2023-07-31T04:01:57;8.10;;;2.78;;
8232;SDS011;4157;48.074;9.952;2023-07-31T04:04:24;8.80;;;3.25;;
8232;SDS011;4157;48.074;9.952;2023-07-31T04:06:52;6.03;;;3.13;;
8232;SDS011;4157;48.074;9.952;2023-07-31T04:09:20;7.45;;;3.13;;
8232;SDS011;4157;48.074;9.952;2023-07-31T04:11:47;5.75;;;2.92;;
8232;SDS011;4157;48.074;9.952;2023-07-31T04:14:15;5.95;;;3.00;;
8232;SDS011;4157;48.074;9.952;2023-07-31T04:16:43;6.43;;;3.25;;
8232;SDS011;4157;48.074;9.952;2023-07-31T04:19:12;8.45;;;2.88;;
8232;SDS011;4157;48.074;9.952;2023-07-31T04:21:42;10.38;;;3.83;;
8232;SDS011;4157;48.074;9.952;2023-07-31T04:24:09;8.05;;;3.60;;
8232;SDS011;4157;48.074;9.952;2023-07-31T04:26:37;7.18;;;3.28;;
8232;SDS011;4157;48.074;9.952;2023-07-31T04:29:05;7.25;;;3.25;;
8232;SDS011;4157;48.074;9.952;2023-07-31T04:31:33;6.53;;;3.10;;
8232;SDS011;4157;48.074;9.952;2023-07-31T04:34:01;6.88;;;2.90;;
8232;SDS011;4157;48.074;9.952;2023-07-31T04:36:30;6.07;;;2.20;;
8232;SDS011;4157;48.074;9.952;2023-07-31T04:38:57;4.63;;;2.13;;
8232;SDS011;4157;48.074;9.952;2023-07-31T04:41:25;4.93;;;2.30;;
8232;SDS011;4157;48.074;9.952;2023-07-31T04:43:53;5.53;;;2.40;;
8232;SDS011;4157;48.074;9.952;2023-07-31T04:46:21;4.13;;;2.17;;
8232;SDS011;4157;48.074;9.952;2023-07-31T04:48:49;6.22;;;2.75;;
8232;SDS011;4157;48.074;9.952;2023-07-31T04:51:16;5.07;;;2.15;;
8232;SDS011;4157;48.074;9.952;2023-07-31T04:53:45;8.32;;;2.33;;
8232;SDS011;4157;48.074;9.952;2023-07-31T04:56:13;6.28;;;2.53;;
8232;SDS011;4157;48.074;9.952;2023-07-31T04:58:41;5.57;;;2.33;;
8232;SDS011;4157;48.074;9.952;2023-07-31T05:01:08;5.85;;;2.55;;
8232;SDS011;4157;48.074;9.952;2023-07-31T05:03:36;4.53;;;2.13;;
8232;SDS011;4157;48.074;9.952;2023-07-31T05:06:04;5.72;;;2.03;;
8232;SDS011;4157;48.074;9.952;2023-07-31T05:08:31;4.97;;;2.15;;
8232;SDS011;4157;48.074;9.952;2023-07-31T05:11:01;4.90;;;2.05;;
8232;SDS011;4157;48.074;9.952;2023-07-31T05:13:29;5.07;;;2.22;;
8232;SDS011;4157;48.074;9.952;2023-07-31T05:15:57;6.65;;;2.65;;
8232;SDS011;4157;48.074;9.952;2023-07-31T05:18:24;7.40;;;2.20;;
8232;SDS011;4157;48.074;9.952;2023-07-31T05:20:52;4.43;;;2.05;;
8232;SDS011;4157;48.074;9.952;2023-07-31T05:23:20;5.55;;;2.20;;
8232;SDS011;4157;48.074;9.952;2023-07-31T05:25:47;5.43;;;2.70;;
8232;SDS011;4157;48.074;9.952;2023-07-31T05:28:16;6.22;;;2.45;;
8232;SDS011;4157;48.074;9.952;2023-07-31T05:30:44;5.57;;;2.10;;
8232;SDS011;4157;48.074;9.952;2023-07-31T05:33:12;7.68;;;2.63;;
8232;SDS011;4157;48.074;9.952;2023-07-31T05:35:39;4.75;;;2.22;;
8232;SDS011;4157;48.074;9.952;2023-07-31T05:38:07;4.78;;;2.10;;
8232;SDS011;4157;48.074;9.952;2023-07-31T05:40:35;9.75;;;2.30;;
8232;SDS011;4157;48.074;9.952;2023-07-31T05:43:02;5.75;;;2.45;;
8232;SDS011;4157;48.074;9.952;2023-07-31T05:45:33;6.43;;;2.20;;
8232;SDS011;4157;48.074;9.952;2023-07-31T05:48:01;5.55;;;2.20;;
8232;SDS011;4157;48.074;9.952;2023-07-31T05:50:29;7.47;;;2.20;;
8232;SDS011;4157;48.074;9.952;2023-07-31T05:52:57;5.07;;;1.85;;
8232;SDS011;4157;48.074;9.952;2023-07-31T05:55:24;5.68;;;2.10;;
8232;SDS011;4157;48.074;9.952;2023-07-31T05:57:52;7.13;;;2.85;;
8232;SDS011;4157;48.074;9.952;2023-07-31T06:00:20;4.13;;;2.00;;
8232;SDS011;4157;48.074;9.952;2023-07-31T06:02:49;6.07;;;2.42;;
8232;SDS011;4157;48.074;9.952;2023-07-31T06:05:17;6.68;;;2.00;;
8232;SDS011;4157;48.074;9.952;2023-07-31T06:07:45;4.78;;;1.80;;
8232;SDS011;4157;48.074;9.952;2023-07-31T06:10:12;5.18;;;1.80;;
8232;SDS011;4157;48.074;9.952;2023-07-31T06:12:40;4.68;;;2.08;;
8232;SDS011;4157;48.074;9.952;2023-07-31T06:15:08;5.13;;;2.50;;
8232;SDS011;4157;48.074;9.952;2023-07-31T06:17:36;5.00;;;2.20;;
8232;SDS011;4157;48.074;9.952;2023-07-31T06:20:06;4.75;;;1.98;;
8232;SDS011;4157;48.074;9.952;2023-07-31T06:22:34;5.07;;;2.00;;
8232;SDS011;4157;48.074;9.952;2023-07-31T06:25:02;6.10;;;1.88;;
8232;SDS011;4157;48.074;9.952;2023-07-31T06:27:29;10.15;;;2.60;;
8232;SDS011;4157;48.074;9.952;2023-07-31T06:29:57;5.45;;;2.05;;
8232;SDS011;4157;48.074;9.952;2023-07-31T06:32:25;5.05;;;2.10;;
8232;SDS011;4157;48.074;9.952;2023-07-31T06:34:52;4.90;;;1.92;;
8232;SDS011;4157;48.074;9.952;2023-07-31T06:37:22;6.63;;;2.08;;
8232;SDS011;4157;48.074;9.952;2023-07-31T06:39:49;6.65;;;1.90;;
8232;SDS011;4157;48.074;9.952;2023-07-31T06:42:17;5.20;;;1.80;;
8232;SDS011;4157;48.074;9.952;2023-07-31T06:44:45;3.75;;;1.70;;
8232;SDS011;4157;48.074;9.952;2023-07-31T06:47:12;7.25;;;2.03;;
8232;SDS011;4157;48.074;9.952;2023-07-31T06:49:40;7.88;;;1.88;;
8232;SDS011;4157;48.074;9.952;2023-07-31T06:52:08;5.82;;;1.80;;
8232;SDS011;4157;48.074;9.952;2023-07-31T06:54:38;5.63;;;2.05;;
8232;SDS011;4157;48.074;9.952;2023-07-31T06:57:05;7.35;;;2.03;;
8232;SDS011;4157;48.074;9.952;2023-07-31T06:59:33;6.43;;;1.92;;
8232;SDS011;4157;48.074;9.952;2023-07-31T07:02:01;6.30;;;2.03;;
8232;SDS011;4157;48.074;9.952;2023-07-31T07:04:29;5.85;;;1.60;;
8232;SDS011;4157;48.074;9.952;2023-07-31T07:06:56;6.90;;;1.90;;
8232;SDS011;4157;48.074;9.952;2023-07-31T07:09:24;4.75;;;1.83;;
8232;SDS011;4157;48.074;9.952;2023-07-31T07:11:53;5.07;;;1.85;;
8232;SDS011;4157;48.074;9.952;2023-07-31T07:14:21;5.50;;;2.10;;
8232;SDS011;4157;48.074;9.952;2023-07-31T07:16:50;6.38;;;1.95;;
8232;SDS011;4157;48.074;9.952;2023-07-31T07:19:18;5.88;;;1.90;;
8232;SDS011;4157;48.074;9.952;2023-07-31T07:21:45;7.32;;;1.83;;
8232;SDS011;4157;48.074;9.952;2023-07-31T07:24:13;5.32;;;1.77;;
8232;SDS011;4157;48.074;9.952;2023-07-31T07:26:41;6.10;;;1.83;;
8232;SDS011;4157;48.074;9.952;2023-07-31T07:29:10;7.38;;;1.75;;
8232;SDS011;4157;48.074;9.952;2023-07-31T07:31:37;4.55;;;1.63;;
8232;SDS011;4157;48.074;9.952;2023-07-31T07:34:05;7.35;;;2.20;;
8232;SDS011;4157;48.074;9.952;2023-07-31T07:36:33;4.32;;;1.70;;
8232;SDS011;4157;48.074;9.952;2023-07-31T07:39:00;4.13;;;1.70;;
8232;SDS011;4157;48.074;9.952;2023-07-31T07:41:28;4.28;;;1.63;;
8232;SDS011;4157;48.074;9.952;2023-07-31T07:43:56;4.50;;;1.73;;
8232;SDS011;4157;48.074;9.952;2023-07-31T07:46:25;4.07;;;1.73;;
8232;SDS011;4157;48.074;9.952;2023-07-31T07:48:52;6.10;;;2.10;;
8232;SDS011;4157;48.074;9.952;2023-07-31T07:51:20;5.55;;;1.80;;
8232;SDS011;4157;48.074;9.952;2023-07-31T07:53:48;6.00;;;2.00;;
8232;SDS011;4157;48.074;9.952;2023-07-31T07:56:15;5.20;;;1.80;;
8232;SDS011;4157;48.074;9.952;2023-07-31T07:58:43;5.13;;;1.95;;
8232;SDS011;4157;48.074;9.952;2023-07-31T08:01:11;4.88;;;1.80;;
8232;SDS011;4157;48.074;9.952;2023-07-31T08:03:40;5.15;;;1.88;;
8232;SDS011;4157;48.074;9.952;2023-07-31T08:06:07;4.30;;;1.80;;
8232;SDS011;4157;48.074;9.952;2023-07-31T08:08:35;4.90;;;2.15;;
8232;SDS011;4157;48.074;9.952;2023-07-31T08:11:03;4.57;;;1.98;;
8232;SDS011;4157;48.074;9.952;2023-07-31T08:13:31;3.65;;;1.70;;
8232;SDS011;4157;48.074;9.952;2023-07-31T08:15:59;5.55;;;1.70;;
8232;SDS011;4157;48.074;9.952;2023-07-31T08:18:26;3.85;;;1.70;;
8232;SDS011;4157;48.074;9.952;2023-07-31T08:20:55;5.32;;;1.60;;
8232;SDS011;4157;48.074;9.952;2023-07-31T08:23:23;5.82;;;1.85;;
8232;SDS011;4157;48.074;9.952;2023-07-31T08:25:51;5.38;;;2.05;;
8232;SDS011;4157;48.074;9.952;2023-07-31T08:28:18;4.68;;;1.83;;
8232;SDS011;4157;48.074;9.952;2023-07-31T08:30:46;6.25;;;1.90;;
8232;SDS011;4157;48.074;9.952;2023-07-31T08:33:16;4.55;;;2.05;;
8232;SDS011;4157;48.074;9.952;2023-07-31T08:35:43;5.53;;;1.92;;
8232;SDS011;4157;48.074;9.952;2023-07-31T08:38:13;6.05;;;1.95;;
8232;SDS011;4157;48.074;9.952;2023-07-31T08:40:40;5.32;;;1.90;;
8232;SDS011;4157;48.074;9.952;2023-07-31T08:43:08;7.78;;;2.65;;
8232;SDS011;4157;48.074;9.952;2023-07-31T08:45:36;6.03;;;2.08;;
8232;SDS011;4157;48.074;9.952;2023-07-31T08:48:04;9.75;;;2.35;;
8232;SDS011;4157;48.074;9.952;2023-07-31T08:50:32;4.43;;;1.70;;
8232;SDS011;4157;48.074;9.952;2023-07-31T08:53:00;5.15;;;2.15;;
8232;SDS011;4157;48.074;9.952;2023-07-31T08:55:29;5.50;;;1.80;;
8232;SDS011;4157;48.074;9.952;2023-07-31T08:57:57;6.68;;;1.60;;
8232;SDS011;4157;48.074;9.952;2023-07-31T09:00:25;7.28;;;2.20;;
8232;SDS011;4157;48.074;9.952;2023-07-31T09:02:56;4.97;;;1.70;;
8232;SDS011;4157;48.074;9.952;2023-07-31T09:05:23;9.02;;;2.13;;
8232;SDS011;4157;48.074;9.952;2023-07-31T09:07:53;4.80;;;1.95;;
8232;SDS011;4157;48.074;9.952;2023-07-31T09:10:22;5.40;;;1.80;;
8232;SDS011;4157;48.074;9.952;2023-07-31T09:12:52;5.30;;;1.85;;
8232;SDS011;4157;48.074;9.952;2023-07-31T09:15:19;6.63;;;2.20;;
8232;SDS011;4157;48.074;9.952;2023-07-31T09:17:47;5.43;;;1.70;;
8232;SDS011;4157;48.074;9.952;2023-07-31T09:20:15;4.88;;;1.83;;
8232;SDS011;4157;48.074;9.952;2023-07-31T09:22:43;6.35;;;2.00;;
8232;SDS011;4157;48.074;9.952;2023-07-31T09:25:15;4.72;;;1.83;;
8232;SDS011;4157;48.074;9.952;2023-07-31T09:27:47;5.13;;;1.83;;
8232;SDS011;4157;48.074;9.952;2023-07-31T09:30:16;5.63;;;1.75;;
8232;SDS011;4157;48.074;9.952;2023-07-31T09:32:44;6.43;;;2.10;;
8232;SDS011;4157;48.074;9.952;2023-07-31T09:35:22;6.13;;;1.85;;
8232;SDS011;4157;48.074;9.952;2023-07-31T09:37:50;4.50;;;1.63;;
8232;SDS011;4157;48.074;9.952;2023-07-31T09:40:25;4.95;;;1.88;;
8232;SDS011;4157;48.074;9.952;2023-07-31T09:42:54;4.25;;;1.65;;
8232;SDS011;4157;48.074;9.952;2023-07-31T09:45:24;5.05;;;1.90;;
8232;SDS011;4157;48.074;9.952;2023-07-31T09:47:52;3.17;;;1.55;;
8232;SDS011;4157;48.074;9.952;2023-07-31T09:50:20;5.70;;;1.88;;
8232;SDS011;4157;48.074;9.952;2023-07-31T09:52:48;6.40;;;2.03;;
8232;SDS011;4157;48.074;9.952;2023-07-31T09:55:16;8.48;;;1.95;;
8232;SDS011;4157;48.074;9.952;2023-07-31T09:57:44;8.27;;;2.10;;
8232;SDS011;4157;48.074;9.952;2023-07-31T10:00:13;10.15;;;2.72;;
8232;SDS011;4157;48.074;9.952;2023-07-31T10:02:43;4.47;;;1.73;;
8232;SDS011;4157;48.074;9.952;2023-07-31T10:05:12;6.05;;;2.20;;
8232;SDS011;4157;48.074;9.952;2023-07-31T10:07:41;6.00;;;2.30;;
8232;SDS011;4157;48.074;9.952;2023-07-31T10:10:09;4.78;;;1.70;;
8232;SDS011;4157;48.074;9.952;2023-07-31T10:12:38;6.13;;;1.90;;
8232;SDS011;4157;48.074;9.952;2023-07-31T10:15:06;6.95;;;1.92;;
8232;SDS011;4157;48.074;9.952;2023-07-31T10:17:33;5.97;;;1.98;;
8232;SDS011;4157;48.074;9.952;2023-07-31T10:20:04;7.82;;;2.05;;
8232;SDS011;4157;48.074;9.952;2023-07-31T10:22:33;7.00;;;2.00;;
8232;SDS011;4157;48.074;9.952;2023-07-31T10:25:01;4.32;;;1.92;;
8232;SDS011;4157;48.074;9.952;2023-07-31T10:27:28;5.07;;;1.85;;
8232;SDS011;4157;48.074;9.952;2023-07-31T10:29:57;3.80;;;1.70;;
8232;SDS011;4157;48.074;9.952;2023-07-31T10:32:25;8.30;;;1.92;;
8232;SDS011;4157;48.074;9.952;2023-07-31T10:34:53;5.43;;;1.67;;
8232;SDS011;4157;48.074;9.952;2023-07-31T10:37:27;7.90;;;2.38;;
8232;SDS011;4157;48.074;9.952;2023-07-31T10:42:26;5.88;;;1.77;;
8232;SDS011;4157;48.074;9.952;2023-07-31T10:44:56;3.75;;;1.60;;
8232;SDS011;4157;48.074;9.952;2023-07-31T10:47:24;5.00;;;1.63;;
8232;SDS011;4157;48.074;9.952;2023-07-31T10:49:51;5.38;;;1.73;;
8232;SDS011;4157;48.074;9.952;2023-07-31T10:52:19;4.82;;;1.50;;
8232;SDS011;4157;48.074;9.952;2023-07-31T10:54:50;6.28;;;1.80;;
8232;SDS011;4157;48.074;9.952;2023-07-31T10:57:38;5.13;;;1.83;;
8232;SDS011;4157;48.074;9.952;2023-07-31T11:00:18;4.55;;;1.75;;
8232;SDS011;4157;48.074;9.952;2023-07-31T11:02:55;6.43;;;1.85;;
8232;SDS011;4157;48.074;9.952;2023-07-31T11:08:10;5.35;;;1.80;;
8232;SDS011;4157;48.074;9.952;2023-07-31T11:10:39;4.80;;;1.60;;
8232;SDS011;4157;48.074;9.952;2023-07-31T11:13:06;6.10;;;2.05;;
8232;SDS011;4157;48.074;9.952;2023-07-31T11:15:34;4.72;;;1.73;;
8232;SDS011;4157;48.074;9.952;2023-07-31T11:18:02;12.27;;;2.10;;
8232;SDS011;4157;48.074;9.952;2023-07-31T11:20:31;3.78;;;1.70;;
8232;SDS011;4157;48.074;9.952;2023-07-31T11:23:00;7.07;;;1.90;;
8232;SDS011;4157;48.074;9.952;2023-07-31T11:25:29;6.43;;;1.77;;
8232;SDS011;4157;48.074;9.952;2023-07-31T11:28:01;5.85;;;1.90;;
8232;SDS011;4157;48.074;9.952;2023-07-31T11:30:29;3.88;;;1.90;;
8232;SDS011;4157;48.074;9.952;2023-07-31T11:32:57;6.22;;;2.00;;
8232;SDS011;4157;48.074;9.952;2023-07-31T11:35:24;5.45;;;2.00;;
8232;SDS011;4157;48.074;9.952;2023-07-31T11:37:53;6.05;;;2.05;;
8232;SDS011;4157;48.074;9.952;2023-07-31T11:40:20;5.32;;;2.00;;
8232;SDS011;4157;48.074;9.952;2023-07-31T11:42:49;7.25;;;2.08;;
8232;SDS011;4157;48.074;9.952;2023-07-31T11:45:18;5.25;;;1.70;;
8232;SDS011;4157;48.074;9.952;2023-07-31T11:47:46;5.05;;;1.88;;
8232;SDS011;4157;48.074;9.952;2023-07-31T11:50:13;3.65;;;1.40;;
8232;SDS011;4157;48.074;9.952;2023-07-31T11:52:42;5.53;;;1.92;;
8232;SDS011;4157;48.074;9.952;2023-07-31T11:55:12;4.88;;;1.80;;
8232;SDS011;4157;48.074;9.952;2023-07-31T11:57:41;4.80;;;1.73;;
8232;SDS011;4157;48.074;9.952;2023-07-31T12:00:10;4.60;;;1.80;;
8232;SDS011;4157;48.074;9.952;2023-07-31T12:02:40;6.03;;;2.00;;
8232;SDS011;4157;48.074;9.952;2023-07-31T12:05:10;6.07;;;1.67;;
8232;SDS011;4157;48.074;9.952;2023-07-31T12:07:44;6.95;;;1.70;;
8232;SDS011;4157;48.074;9.952;2023-07-31T12:10:22;4.60;;;1.80;;
8232;SDS011;4157;48.074;9.952;2023-07-31T12:12:55;7.95;;;1.88;;
8232;SDS011;4157;48.074;9.952;2023-07-31T12:15:28;8.18;;;2.20;;
8232;SDS011;4157;48.074;9.952;2023-07-31T12:17:58;5.40;;;1.75;;
8232;SDS011;4157;48.074;9.952;2023-07-31T12:20:26;3.72;;;1.50;;
8232;SDS011;4157;48.074;9.952;2023-07-31T12:22:56;5.13;;;1.83;;
8232;SDS011;4157;48.074;9.952;2023-07-31T12:25:28;5.88;;;1.85;;
8232;SDS011;4157;48.074;9.952;2023-07-31T12:27:56;3.95;;;1.75;;
8232;SDS011;4157;48.074;9.952;2023-07-31T12:30:27;5.13;;;1.52;;
8232;SDS011;4157;48.074;9.952;2023-07-31T12:32:55;5.90;;;1.90;;
8232;SDS011;4157;48.074;9.952;2023-07-31T12:35:24;5.15;;;1.77;;
8232;SDS011;4157;48.074;9.952;2023-07-31T12:37:52;4.45;;;1.73;;
8232;SDS011;4157;48.074;9.952;2023-07-31T12:40:20;3.58;;;1.38;;
8232;SDS011;4157;48.074;9.952;2023-07-31T12:42:47;7.20;;;1.85;;
8232;SDS011;4157;48.074;9.952;2023-07-31T12:45:15;3.90;;;1.77;;
8232;SDS011;4157;48.074;9.952;2023-07-31T12:47:43;4.38;;;1.67;;
8232;SDS011;4157;48.074;9.952;2023-07-31T12:50:10;4.63;;;1.70;;
8232;SDS011;4157;48.074;9.952;2023-07-31T12:52:39;5.47;;;1.80;;
8232;SDS011;4157;48.074;9.952;2023-07-31T12:55:07;4.00;;;1.80;;
8232;SDS011;4157;48.074;9.952;2023-07-31T12:57:36;4.07;;;1.58;;
8232;SDS011;4157;48.074;9.952;2023-07-31T13:00:04;4.35;;;1.50;;
8232;SDS011;4157;48.074;9.952;2023-07-31T13:02:32;4.90;;;1.60;;
8232;SDS011;4157;48.074;9.952;2023-07-31T13:05:00;5.20;;;1.63;;
8232;SDS011;4157;48.074;9.952;2023-07-31T13:07:28;5.15;;;1.95;;
8232;SDS011;4157;48.074;9.952;2023-07-31T13:09:57;5.63;;;2.03;;
8232;SDS011;4157;48.074;9.952;2023-07-31T13:12:24;4.75;;;1.92;;
8232;SDS011;4157;48.074;9.952;2023-07-31T13:14:52;4.55;;;1.90;;
8232;SDS011;4157;48.074;9.952;2023-07-31T13:17:20;5.53;;;1.90;;
8232;SDS011;4157;48.074;9.952;2023-07-31T13:19:48;6.65;;;1.83;;
8232;SDS011;4157;48.074;9.952;2023-07-31T13:22:15;5.28;;;1.90;;
8232;SDS011;4157;48.074;9.952;2023-07-31T13:24:43;6.15;;;2.00;;
8232;SDS011;4157;48.074;9.952;2023-07-31T13:27:12;5.22;;;1.90;;
8232;SDS011;4157;48.074;9.952;2023-07-31T13:29:42;6.40;;;2.13;;
8232;SDS011;4157;48.074;9.952;2023-07-31T13:32:10;5.72;;;2.03;;
8232;SDS011;4157;48.074;9.952;2023-07-31T13:34:37;5.32;;;2.10;;
8232;SDS011;4157;48.074;9.952;2023-07-31T13:37:05;6.68;;;1.90;;
8232;SDS011;4157;48.074;9.952;2023-07-31T13:39:33;4.47;;;1.83;;
8232;SDS011;4157;48.074;9.952;2023-07-31T13:42:01;6.47;;;2.55;;
8232;SDS011;4157;48.074;9.952;2023-07-31T13:44:30;5.65;;;2.13;;
8232;SDS011;4157;48.074;9.952;2023-07-31T13:46:58;4.75;;;1.85;;
8232;SDS011;4157;48.074;9.952;2023-07-31T13:49:26;6.22;;;2.13;;
8232;SDS011;4157;48.074;9.952;2023-07-31T13:51:53;5.63;;;2.20;;
8232;SDS011;4157;48.074;9.952;2023-07-31T13:54:21;5.40;;;2.10;;
8232;SDS011;4157;48.074;9.952;2023-07-31T13:56:49;5.43;;;1.77;;
8232;SDS011;4157;48.074;9.952;2023-07-31T13:59:17;5.72;;;2.13;;
8232;SDS011;4157;48.074;9.952;2023-07-31T14:01:46;8.25;;;2.13;;
8232;SDS011;4157;48.074;9.952;2023-07-31T14:04:14;4.38;;;2.22;;
8232;SDS011;4157;48.074;9.952;2023-07-31T14:06:43;7.15;;;2.22;;
8232;SDS011;4157;48.074;9.952;2023-07-31T14:09:10;7.50;;;1.98;;
8232;SDS011;4157;48.074;9.952;2023-07-31T14:11:40;5.45;;;1.90;;
8232;SDS011;4157;48.074;9.952;2023-07-31T14:14:08;5.13;;;2.13;;
8232;SDS011;4157;48.074;9.952;2023-07-31T14:16:36;5.13;;;2.10;;
8232;SDS011;4157;48.074;9.952;2023-07-31T14:19:05;6.40;;;2.25;;
8232;SDS011;4157;48.074;9.952;2023-07-31T14:21:34;5.07;;;1.83;;
8232;SDS011;4157;48.074;9.952;2023-07-31T14:24:01;5.43;;;2.20;;
8232;SDS011;4157;48.074;9.952;2023-07-31T14:26:29;4.65;;;1.90;;
8232;SDS011;4157;48.074;9.952;2023-07-31T14:28:57;4.93;;;2.10;;
8232;SDS011;4157;48.074;9.952;2023-07-31T14:31:24;5.13;;;2.20;;
8232;SDS011;4157;48.074;9.952;2023-07-31T14:33:52;4.85;;;1.95;;
8232;SDS011;4157;48.074;9.952;2023-07-31T14:36:21;5.22;;;1.83;;
8232;SDS011;4157;48.074;9.952;2023-07-31T14:38:50;5.38;;;2.00;;
8232;SDS011;4157;48.074;9.952;2023-07-31T14:41:17;5.90;;;1.83;;
8232;SDS011;4157;48.074;9.952;2023-07-31T14:43:45;7.15;;;2.25;;
8232;SDS011;4157;48.074;9.952;2023-07-31T14:46:13;7.32;;;1.90;;
8232;SDS011;4157;48.074;9.952;2023-07-31T14:48:40;5.80;;;2.33;;
8232;SDS011;4157;48.074;9.952;2023-07-31T14:51:08;4.55;;;1.90;;
8232;SDS011;4157;48.074;9.952;2023-07-31T14:53:37;4.53;;;1.90;;
8232;SDS011;4157;48.074;9.952;2023-07-31T14:56:05;5.70;;;2.00;;
8232;SDS011;4157;48.074;9.952;2023-07-31T14:58:32;5.15;;;2.08;;
8232;SDS011;4157;48.074;9.952;2023-07-31T15:01:00;5.43;;;2.13;;
8232;SDS011;4157;48.074;9.952;2023-07-31T15:03:28;4.35;;;2.13;;
8232;SDS011;4157;48.074;9.952;2023-07-31T15:05:55;5.72;;;2.35;;
8232;SDS011;4157;48.074;9.952;2023-07-31T15:08:23;4.80;;;2.13;;
8232;SDS011;4157;48.074;9.952;2023-07-31T15:10:54;5.97;;;2.30;;
8232;SDS011;4157;48.074;9.952;2023-07-31T15:13:23;7.18;;;2.45;;
8232;SDS011;4157;48.074;9.952;2023-07-31T15:15:51;5.47;;;1.98;;
8232;SDS011;4157;48.074;9.952;2023-07-31T15:18:19;5.28;;;2.00;;
8232;SDS011;4157;48.074;9.952;2023-07-31T15:20:46;5.00;;;2.08;;
8232;SDS011;4157;48.074;9.952;2023-07-31T15:23:14;5.63;;;2.00;;
8232;SDS011;4157;48.074;9.952;2023-07-31T15:25:42;6.35;;;2.13;;
8232;SDS011;4157;48.074;9.952;2023-07-31T15:28:11;4.32;;;2.03;;
8232;SDS011;4157;48.074;9.952;2023-07-31T15:30:38;5.45;;;2.10;;